Cincinnati Municipal Airport Lunken Field
KLUK : now visible

Airfield :











YOU CAN JOIN US ON...

 
LOGIN :

Register | Disclaimer

   EN    FR    IT 

 









Legend :    VFR   Marginal VFR   IFR   Intensive IFR   Very Intensive IFR
Visi :
Ceiling :
>= 8 km
>= 3000ft
5 to 8 km
1000 to 3000 ft
1500m to 5 km
500 to 1000 ft
800 to 1500m
200 to 500 ft
< 800m
< 200 ft
Symbols :   Thunderstorms  Fog  Heavy snow  Heavy precipitations  Wind > 20 kt






- Airport Elevation : 483 ft
- IATA code : LUK


KLUK - Cincinnati Municipal Lunken Field

CURRENT METAR :
  • 261153Z 00000KT M1/4SM R21L/1000V1200FT FG VV002 15/15 A3003 RMK AO2 SLP166 T01500150 10178 20144 53014

EXPIRED METARs :
  • 261053Z 00000KT 1/4SM R21L/1000V1400FT FG VV002 16/15 A3001 RMK AO2 SLP160 T01560150
  • 260953Z AUTO 00000KT 1/4SM R21L/1200VP6000FT FG VV001 15/14 A3000 RMK AO2 SLP155 T01500144

TAF KLUK
Valid from the 26 at 12:00 until the 27 at 12:00 UTC


261130Z 2612/2712 00000KT 1/4SM FG VV002
FM261300 VRB02KT 3SM BR SCT002
FM261400 21006KT P6SM FEW040
FM261800 21009KT P6SM FEW050
FM270000 20004KT P6SM FEW250
FM270700 00000KT 2SM BR SCT002
FM270900 00000KT 1/4SM FG VV002
KZID FIR / North America



MET'MAP, your aeronautical weather chart ! - Copyright ORBIFLY December 2007 - Disclaimer

ORBIFLY MET'MAP TEAM :

Programming & Development : Alexandra Zaïnal
Concept & original design : Baudouin d'Aumeries
Assistance for programming : Marc-Olivier Méhu
Technical & hardware support : Manuel Goepfert

Contact : metmap@orbifly.com




SOURCES & CREDITS :

   NOAA       Earth
Advisory